sensor_id;sensor_type;location;lat;lon;timestamp;pressure;altitude;pressure_sealevel;temperature;humidity
30708;BME280;17458;48.958;8.284;2023-04-15T00:02:16;99402.50;;;8.15;65.16
30708;BME280;17458;48.958;8.284;2023-04-15T00:05:00;99406.47;;;7.85;66.32
30708;BME280;17458;48.958;8.284;2023-04-15T00:07:44;99407.47;;;7.89;66.65
30708;BME280;17458;48.958;8.284;2023-04-15T00:10:29;99398.41;;;8.03;66.07
30708;BME280;17458;48.958;8.284;2023-04-15T00:13:13;99397.25;;;7.96;67.09
30708;BME280;17458;48.958;8.284;2023-04-15T00:15:58;99399.84;;;7.95;67.25
30708;BME280;17458;48.958;8.284;2023-04-15T00:18:42;99391.34;;;7.82;68.33
30708;BME280;17458;48.958;8.284;2023-04-15T00:21:26;99393.34;;;8.07;67.29
30708;BME280;17458;48.958;8.284;2023-04-15T00:24:11;99389.09;;;8.11;66.64
30708;BME280;17458;48.958;8.284;2023-04-15T00:26:56;99392.97;;;8.19;66.03
30708;BME280;17458;48.958;8.284;2023-04-15T00:29:41;99398.13;;;8.16;66.28
30708;BME280;17458;48.958;8.284;2023-04-15T00:32:25;99390.38;;;8.00;67.07
30708;BME280;17458;48.958;8.284;2023-04-15T00:35:09;99394.53;;;8.14;66.41
30708;BME280;17458;48.958;8.284;2023-04-15T00:37:53;99386.44;;;7.71;68.50
30708;BME280;17458;48.958;8.284;2023-04-15T00:40:38;99391.53;;;7.87;68.43
30708;BME280;17458;48.958;8.284;2023-04-15T00:43:22;99390.16;;;7.95;68.80
30708;BME280;17458;48.958;8.284;2023-04-15T00:46:06;99383.28;;;7.99;68.25
30708;BME280;17458;48.958;8.284;2023-04-15T00:48:53;99393.22;;;8.04;68.02
30708;BME280;17458;48.958;8.284;2023-04-15T00:51:37;99385.13;;;8.01;67.47
30708;BME280;17458;48.958;8.284;2023-04-15T00:54:21;99380.81;;;8.03;67.27
30708;BME280;17458;48.958;8.284;2023-04-15T00:57:06;99374.63;;;8.03;66.93
30708;BME280;17458;48.958;8.284;2023-04-15T00:59:51;99382.47;;;8.01;66.70
30708;BME280;17458;48.958;8.284;2023-04-15T01:02:36;99386.94;;;8.02;65.90
30708;BME280;17458;48.958;8.284;2023-04-15T01:05:20;99388.28;;;7.93;65.93
30708;BME280;17458;48.958;8.284;2023-04-15T01:08:05;99388.91;;;7.87;66.00
30708;BME280;17458;48.958;8.284;2023-04-15T01:10:49;99385.56;;;7.91;65.83
30708;BME280;17458;48.958;8.284;2023-04-15T01:13:34;99388.28;;;7.73;65.49
30708;BME280;17458;48.958;8.284;2023-04-15T01:16:19;99384.19;;;7.80;65.78
30708;BME280;17458;48.958;8.284;2023-04-15T01:19:08;99383.97;;;7.75;65.90
30708;BME280;17458;48.958;8.284;2023-04-15T01:21:53;99386.44;;;7.71;65.78
30708;BME280;17458;48.958;8.284;2023-04-15T01:24:38;99386.34;;;7.69;66.24
30708;BME280;17458;48.958;8.284;2023-04-15T01:27:22;99379.38;;;7.52;66.18
30708;BME280;17458;48.958;8.284;2023-04-15T01:30:08;99386.84;;;7.80;65.18
30708;BME280;17458;48.958;8.284;2023-04-15T01:32:52;99377.22;;;7.63;65.11
30708;BME280;17458;48.958;8.284;2023-04-15T01:35:37;99378.97;;;7.62;65.18
30708;BME280;17458;48.958;8.284;2023-04-15T01:38:21;99381.00;;;7.68;65.21
30708;BME280;17458;48.958;8.284;2023-04-15T01:41:05;99388.16;;;7.70;65.26
30708;BME280;17458;48.958;8.284;2023-04-15T01:43:50;99386.91;;;7.81;64.58
30708;BME280;17458;48.958;8.284;2023-04-15T01:46:35;99380.16;;;7.69;64.78
30708;BME280;17458;48.958;8.284;2023-04-15T01:49:19;99385.72;;;7.56;65.67
30708;BME280;17458;48.958;8.284;2023-04-15T01:52:03;99389.34;;;7.58;65.47
30708;BME280;17458;48.958;8.284;2023-04-15T01:54:47;99382.78;;;7.50;65.59
30708;BME280;17458;48.958;8.284;2023-04-15T01:57:31;99383.34;;;7.42;65.97
30708;BME280;17458;48.958;8.284;2023-04-15T02:00:15;99383.03;;;7.36;66.01
30708;BME280;17458;48.958;8.284;2023-04-15T02:03:00;99385.72;;;7.19;66.42
30708;BME280;17458;48.958;8.284;2023-04-15T02:05:44;99387.25;;;7.14;66.56
30708;BME280;17458;48.958;8.284;2023-04-15T02:08:28;99389.34;;;7.21;67.07
30708;BME280;17458;48.958;8.284;2023-04-15T02:11:12;99406.50;;;7.30;66.62
30708;BME280;17458;48.958;8.284;2023-04-15T02:13:56;99409.88;;;7.26;66.93
30708;BME280;17458;48.958;8.284;2023-04-15T02:16:42;99399.31;;;7.26;66.49
30708;BME280;17458;48.958;8.284;2023-04-15T02:19:26;99410.53;;;7.22;66.32
30708;BME280;17458;48.958;8.284;2023-04-15T02:22:10;99405.94;;;7.18;66.72
30708;BME280;17458;48.958;8.284;2023-04-15T02:25:02;99411.75;;;7.11;66.73
30708;BME280;17458;48.958;8.284;2023-04-15T02:27:46;99401.13;;;7.09;67.16
30708;BME280;17458;48.958;8.284;2023-04-15T02:30:33;99402.94;;;7.10;67.33
30708;BME280;17458;48.958;8.284;2023-04-15T02:33:20;99403.69;;;7.08;67.51
30708;BME280;17458;48.958;8.284;2023-04-15T02:36:04;99396.44;;;7.04;67.39
30708;BME280;17458;48.958;8.284;2023-04-15T02:38:50;99397.75;;;7.12;67.33
30708;BME280;17458;48.958;8.284;2023-04-15T02:41:34;99391.56;;;7.11;68.02
30708;BME280;17458;48.958;8.284;2023-04-15T02:44:19;99400.22;;;7.09;67.77
30708;BME280;17458;48.958;8.284;2023-04-15T02:47:06;99402.25;;;7.15;68.24
30708;BME280;17458;48.958;8.284;2023-04-15T02:49:49;99405.72;;;7.14;67.46
30708;BME280;17458;48.958;8.284;2023-04-15T02:52:33;99402.88;;;7.09;67.72
30708;BME280;17458;48.958;8.284;2023-04-15T02:55:18;99407.53;;;7.15;67.29
30708;BME280;17458;48.958;8.284;2023-04-15T02:58:02;99409.44;;;6.99;67.60
30708;BME280;17458;48.958;8.284;2023-04-15T03:00:47;99401.97;;;7.08;66.83
30708;BME280;17458;48.958;8.284;2023-04-15T03:03:33;99400.91;;;7.05;67.32
30708;BME280;17458;48.958;8.284;2023-04-15T03:06:18;99397.28;;;7.03;67.40
30708;BME280;17458;48.958;8.284;2023-04-15T03:09:02;99398.97;;;7.01;67.15
30708;BME280;17458;48.958;8.284;2023-04-15T03:11:50;99412.00;;;6.98;67.61
30708;BME280;17458;48.958;8.284;2023-04-15T03:14:37;99404.47;;;6.88;67.25
30708;BME280;17458;48.958;8.284;2023-04-15T03:17:21;99407.56;;;6.97;66.89
30708;BME280;17458;48.958;8.284;2023-04-15T03:20:06;99407.25;;;6.91;67.16
30708;BME280;17458;48.958;8.284;2023-04-15T03:22:52;99408.47;;;6.97;66.84
30708;BME280;17458;48.958;8.284;2023-04-15T03:25:38;99405.59;;;6.93;66.72
30708;BME280;17458;48.958;8.284;2023-04-15T03:28:27;99410.69;;;6.90;67.44
30708;BME280;17458;48.958;8.284;2023-04-15T03:31:13;99404.75;;;6.76;67.29
30708;BME280;17458;48.958;8.284;2023-04-15T03:33:57;99403.91;;;6.77;67.27
30708;BME280;17458;48.958;8.284;2023-04-15T03:36:41;99399.28;;;6.71;67.58
30708;BME280;17458;48.958;8.284;2023-04-15T03:39:25;99403.72;;;6.72;67.23
30708;BME280;17458;48.958;8.284;2023-04-15T03:42:10;99406.78;;;6.64;66.50
30708;BME280;17458;48.958;8.284;2023-04-15T03:44:54;99410.63;;;6.53;67.80
30708;BME280;17458;48.958;8.284;2023-04-15T03:47:38;99414.78;;;6.65;66.95
30708;BME280;17458;48.958;8.284;2023-04-15T03:50:22;99410.88;;;6.57;67.26
30708;BME280;17458;48.958;8.284;2023-04-15T03:53:06;99407.66;;;6.47;67.56
30708;BME280;17458;48.958;8.284;2023-04-15T03:55:50;99410.88;;;6.57;66.95
30708;BME280;17458;48.958;8.284;2023-04-15T03:58:34;99419.06;;;6.63;67.22
30708;BME280;17458;48.958;8.284;2023-04-15T04:01:18;99419.06;;;6.63;67.21
30708;BME280;17458;48.958;8.284;2023-04-15T04:04:02;99419.97;;;6.64;67.32
30708;BME280;17458;48.958;8.284;2023-04-15T04:06:46;99418.78;;;6.57;67.30
30708;BME280;17458;48.958;8.284;2023-04-15T04:09:30;99419.53;;;6.55;67.16
30708;BME280;17458;48.958;8.284;2023-04-15T04:12:14;99417.47;;;6.49;66.88
30708;BME280;17458;48.958;8.284;2023-04-15T04:14:59;99410.81;;;6.39;67.14
30708;BME280;17458;48.958;8.284;2023-04-15T04:17:45;99417.47;;;6.31;67.14
30708;BME280;17458;48.958;8.284;2023-04-15T04:20:29;99415.63;;;6.30;67.56
30708;BME280;17458;48.958;8.284;2023-04-15T04:23:15;99410.50;;;6.33;66.85
30708;BME280;17458;48.958;8.284;2023-04-15T04:25:59;99411.38;;;6.16;67.51
30708;BME280;17458;48.958;8.284;2023-04-15T04:28:43;99419.69;;;6.24;66.85
30708;BME280;17458;48.958;8.284;2023-04-15T04:31:28;99406.41;;;6.22;67.37
30708;BME280;17458;48.958;8.284;2023-04-15T04:34:12;99414.84;;;6.15;67.40
30708;BME280;17458;48.958;8.284;2023-04-15T04:36:56;99419.69;;;6.24;67.02
30708;BME280;17458;48.958;8.284;2023-04-15T04:39:40;99417.22;;;6.27;67.53
30708;BME280;17458;48.958;8.284;2023-04-15T04:42:24;99428.38;;;6.39;66.47
30708;BME280;17458;48.958;8.284;2023-04-15T04:45:08;99427.16;;;6.32;66.79
30708;BME280;17458;48.958;8.284;2023-04-15T04:47:53;99430.97;;;6.21;67.38
30708;BME280;17458;48.958;8.284;2023-04-15T04:50:37;99438.72;;;6.18;67.83
30708;BME280;17458;48.958;8.284;2023-04-15T04:53:21;99441.41;;;6.20;68.24
30708;BME280;17458;48.958;8.284;2023-04-15T04:56:05;99444.31;;;6.24;67.94
30708;BME280;17458;48.958;8.284;2023-04-15T04:58:49;99436.88;;;6.33;68.28
30708;BME280;17458;48.958;8.284;2023-04-15T05:01:43;99441.19;;;6.49;68.24
30708;BME280;17458;48.958;8.284;2023-04-15T05:04:27;99445.69;;;6.34;67.56
30708;BME280;17458;48.958;8.284;2023-04-15T05:07:12;99439.38;;;6.48;68.27
30708;BME280;17458;48.958;8.284;2023-04-15T05:09:56;99445.03;;;6.72;67.61
30708;BME280;17458;48.958;8.284;2023-04-15T05:12:40;99446.00;;;6.92;67.28
30708;BME280;17458;48.958;8.284;2023-04-15T05:15:28;99453.16;;;6.94;67.42
30708;BME280;17458;48.958;8.284;2023-04-15T05:18:12;99448.56;;;7.08;67.10
30708;BME280;17458;48.958;8.284;2023-04-15T05:20:57;99450.13;;;7.40;66.64
30708;BME280;17458;48.958;8.284;2023-04-15T05:23:41;99446.59;;;7.59;66.17
30708;BME280;17458;48.958;8.284;2023-04-15T05:26:26;99449.28;;;8.16;65.80
30708;BME280;17458;48.958;8.284;2023-04-15T05:29:11;99450.88;;;8.72;64.19
30708;BME280;17458;48.958;8.284;2023-04-15T05:31:55;99453.91;;;9.23;61.02
30708;BME280;17458;48.958;8.284;2023-04-15T05:34:39;99452.88;;;9.42;60.41
30708;BME280;17458;48.958;8.284;2023-04-15T05:37:23;99454.72;;;9.65;60.25
30708;BME280;17458;48.958;8.284;2023-04-15T05:40:08;99456.59;;;9.68;60.34
30708;BME280;17458;48.958;8.284;2023-04-15T05:42:53;99455.84;;;9.72;59.38
30708;BME280;17458;48.958;8.284;2023-04-15T05:45:37;99457.84;;;10.01;59.60
30708;BME280;17458;48.958;8.284;2023-04-15T05:48:21;99464.09;;;10.25;59.03
30708;BME280;17458;48.958;8.284;2023-04-15T05:51:05;99466.16;;;10.33;58.86
30708;BME280;17458;48.958;8.284;2023-04-15T05:53:49;99470.78;;;10.38;59.15
30708;BME280;17458;48.958;8.284;2023-04-15T05:56:33;99472.00;;;10.48;58.70
30708;BME280;17458;48.958;8.284;2023-04-15T05:59:17;99474.69;;;9.57;60.56
30708;BME280;17458;48.958;8.284;2023-04-15T06:02:02;99476.66;;;9.85;59.78
30708;BME280;17458;48.958;8.284;2023-04-15T06:04:46;99468.91;;;10.13;59.93
30708;BME280;17458;48.958;8.284;2023-04-15T06:07:30;99473.44;;;10.38;58.48
30708;BME280;17458;48.958;8.284;2023-04-15T06:10:14;99465.81;;;10.23;58.98
30708;BME280;17458;48.958;8.284;2023-04-15T06:12:58;99471.78;;;10.42;58.61
30708;BME280;17458;48.958;8.284;2023-04-15T06:15:42;99474.88;;;10.54;58.06
30708;BME280;17458;48.958;8.284;2023-04-15T06:18:26;99473.94;;;10.52;57.37
30708;BME280;17458;48.958;8.284;2023-04-15T06:21:10;99480.31;;;10.11;57.83
30708;BME280;17458;48.958;8.284;2023-04-15T06:23:55;99479.56;;;10.61;57.18
30708;BME280;17458;48.958;8.284;2023-04-15T06:26:39;99489.06;;;10.30;58.21
30708;BME280;17458;48.958;8.284;2023-04-15T06:29:24;99488.13;;;10.06;59.14
30708;BME280;17458;48.958;8.284;2023-04-15T06:32:10;99486.13;;;10.47;58.68
30708;BME280;17458;48.958;8.284;2023-04-15T06:34:54;99478.97;;;10.70;58.77
30708;BME280;17458;48.958;8.284;2023-04-15T06:37:39;99479.56;;;10.86;58.67
30708;BME280;17458;48.958;8.284;2023-04-15T06:40:23;99483.06;;;11.11;58.79
30708;BME280;17458;48.958;8.284;2023-04-15T06:43:07;99480.97;;;11.27;57.63
30708;BME280;17458;48.958;8.284;2023-04-15T06:45:52;99480.66;;;11.18;57.76
30708;BME280;17458;48.958;8.284;2023-04-15T06:48:36;99480.88;;;10.48;59.60
30708;BME280;17458;48.958;8.284;2023-04-15T06:51:21;99478.13;;;10.96;58.83
30708;BME280;17458;48.958;8.284;2023-04-15T06:54:06;99479.47;;;11.09;58.05
30708;BME280;17458;48.958;8.284;2023-04-15T06:56:51;99480.63;;;11.72;57.58
30708;BME280;17458;48.958;8.284;2023-04-15T06:59:35;99478.34;;;11.56;56.97
30708;BME280;17458;48.958;8.284;2023-04-15T07:02:23;99487.13;;;11.26;57.36
30708;BME280;17458;48.958;8.284;2023-04-15T07:05:08;99486.34;;;11.29;58.15
30708;BME280;17458;48.958;8.284;2023-04-15T07:07:52;99484.63;;;11.58;57.48
30708;BME280;17458;48.958;8.284;2023-04-15T07:10:37;99486.38;;;11.84;56.34
30708;BME280;17458;48.958;8.284;2023-04-15T07:13:21;99479.56;;;11.94;56.30
30708;BME280;17458;48.958;8.284;2023-04-15T07:16:05;99487.44;;;12.19;56.21
30708;BME280;17458;48.958;8.284;2023-04-15T07:18:49;99491.47;;;12.05;55.90
30708;BME280;17458;48.958;8.284;2023-04-15T07:21:33;99487.00;;;12.04;56.67
30708;BME280;17458;48.958;8.284;2023-04-15T07:24:16;99483.00;;;11.90;57.99
30708;BME280;17458;48.958;8.284;2023-04-15T07:27:02;99490.81;;;11.30;59.74
30708;BME280;17458;48.958;8.284;2023-04-15T07:29:47;99491.81;;;11.33;60.20
30708;BME280;17458;48.958;8.284;2023-04-15T07:32:31;99482.81;;;11.57;59.94
30708;BME280;17458;48.958;8.284;2023-04-15T07:35:15;99479.06;;;11.50;60.42
30708;BME280;17458;48.958;8.284;2023-04-15T07:37:59;99489.19;;;11.62;59.82
30708;BME280;17458;48.958;8.284;2023-04-15T07:40:42;99493.25;;;11.24;61.71
30708;BME280;17458;48.958;8.284;2023-04-15T07:43:26;99492.03;;;11.41;61.94
30708;BME280;17458;48.958;8.284;2023-04-15T07:46:11;99497.31;;;11.40;62.03
30708;BME280;17458;48.958;8.284;2023-04-15T07:48:55;99497.13;;;11.33;62.01
30708;BME280;17458;48.958;8.284;2023-04-15T07:51:39;99493.22;;;11.76;60.57
30708;BME280;17458;48.958;8.284;2023-04-15T07:54:23;99499.44;;;11.77;59.72
30708;BME280;17458;48.958;8.284;2023-04-15T07:57:07;99492.03;;;11.68;58.91
30708;BME280;17458;48.958;8.284;2023-04-15T07:59:51;99503.81;;;12.03;58.86
30708;BME280;17458;48.958;8.284;2023-04-15T08:02:36;99499.91;;;12.22;58.15
30708;BME280;17458;48.958;8.284;2023-04-15T08:05:23;99506.88;;;12.47;58.14
30708;BME280;17458;48.958;8.284;2023-04-15T08:08:07;99496.56;;;12.90;57.49
30708;BME280;17458;48.958;8.284;2023-04-15T08:10:51;99509.03;;;12.93;57.42
30708;BME280;17458;48.958;8.284;2023-04-15T08:13:35;99511.41;;;13.13;56.62
30708;BME280;17458;48.958;8.284;2023-04-15T08:16:23;99507.00;;;13.50;56.71
30708;BME280;17458;48.958;8.284;2023-04-15T08:19:08;99500.09;;;13.57;55.79
30708;BME280;17458;48.958;8.284;2023-04-15T08:21:52;99511.56;;;13.54;55.61
30708;BME280;17458;48.958;8.284;2023-04-15T08:24:36;99515.31;;;13.62;55.41
30708;BME280;17458;48.958;8.284;2023-04-15T08:27:21;99510.25;;;13.73;54.60
30708;BME280;17458;48.958;8.284;2023-04-15T08:30:06;99514.53;;;14.43;54.28
30708;BME280;17458;48.958;8.284;2023-04-15T08:32:51;99509.84;;;14.34;52.87
30708;BME280;17458;48.958;8.284;2023-04-15T08:35:35;99516.84;;;14.68;53.51
30708;BME280;17458;48.958;8.284;2023-04-15T08:38:20;99520.25;;;14.60;53.40
30708;BME280;17458;48.958;8.284;2023-04-15T08:41:16;99526.28;;;14.51;52.52
30708;BME280;17458;48.958;8.284;2023-04-15T08:44:03;99530.31;;;14.73;51.32
30708;BME280;17458;48.958;8.284;2023-04-15T08:46:47;99535.84;;;14.40;52.21
30708;BME280;17458;48.958;8.284;2023-04-15T08:49:35;99524.53;;;14.12;53.73
30708;BME280;17458;48.958;8.284;2023-04-15T08:52:24;99530.97;;;14.63;52.21
30708;BME280;17458;48.958;8.284;2023-04-15T08:55:09;99533.72;;;15.11;50.94
30708;BME280;17458;48.958;8.284;2023-04-15T08:57:55;99528.78;;;15.35;49.48
30708;BME280;17458;48.958;8.284;2023-04-15T09:00:39;99522.34;;;15.74;48.43
30708;BME280;17458;48.958;8.284;2023-04-15T09:03:24;99518.91;;;15.81;47.62
30708;BME280;17458;48.958;8.284;2023-04-15T09:06:10;99528.56;;;15.71;47.20
30708;BME280;17458;48.958;8.284;2023-04-15T09:08:54;99527.06;;;15.90;47.32
30708;BME280;17458;48.958;8.284;2023-04-15T09:11:39;99520.63;;;16.39;46.69
30708;BME280;17458;48.958;8.284;2023-04-15T09:14:27;99524.53;;;16.62;45.38
30708;BME280;17458;48.958;8.284;2023-04-15T09:17:18;99528.78;;;16.48;46.04
30708;BME280;17458;48.958;8.284;2023-04-15T09:20:13;99523.75;;;16.70;45.17
30708;BME280;17458;48.958;8.284;2023-04-15T09:22:58;99526.44;;;16.73;45.29
30708;BME280;17458;48.958;8.284;2023-04-15T09:25:42;99537.16;;;16.70;44.79
30708;BME280;17458;48.958;8.284;2023-04-15T09:28:27;99535.72;;;17.02;44.93
30708;BME280;17458;48.958;8.284;2023-04-15T09:31:11;99543.47;;;16.76;44.35
30708;BME280;17458;48.958;8.284;2023-04-15T09:33:55;99545.84;;;16.56;44.08
30708;BME280;17458;48.958;8.284;2023-04-15T09:39:49;99551.88;;;17.07;44.69
30708;BME280;17458;48.958;8.284;2023-04-15T09:42:34;99547.47;;;17.12;43.95
30708;BME280;17458;48.958;8.284;2023-04-15T09:45:18;99551.38;;;16.64;44.44
30708;BME280;17458;48.958;8.284;2023-04-15T09:48:23;99554.78;;;17.28;44.13
30708;BME280;17458;48.958;8.284;2023-04-15T09:51:09;99564.47;;;17.12;44.90
30708;BME280;17458;48.958;8.284;2023-04-15T09:53:53;99569.78;;;17.08;44.84
30708;BME280;17458;48.958;8.284;2023-04-15T09:56:38;99564.41;;;17.08;43.78
30708;BME280;17458;48.958;8.284;2023-04-15T09:59:25;99574.03;;;16.90;43.98
30708;BME280;17458;48.958;8.284;2023-04-15T10:02:10;99570.91;;;17.26;43.19
30708;BME280;17458;48.958;8.284;2023-04-15T10:04:56;99577.56;;;16.86;43.36
30708;BME280;17458;48.958;8.284;2023-04-15T10:07:41;99572.91;;;16.72;44.35
30708;BME280;17458;48.958;8.284;2023-04-15T10:10:25;99574.69;;;16.70;43.81
30708;BME280;17458;48.958;8.284;2023-04-15T10:13:12;99579.69;;;17.16;43.47
30708;BME280;17458;48.958;8.284;2023-04-15T10:15:59;99574.75;;;17.57;43.64
30708;BME280;17458;48.958;8.284;2023-04-15T10:18:45;99574.94;;;17.74;42.96
30708;BME280;17458;48.958;8.284;2023-04-15T10:21:30;99579.19;;;17.51;41.66
30708;BME280;17458;48.958;8.284;2023-04-15T10:24:15;99581.28;;;16.96;43.36
30708;BME280;17458;48.958;8.284;2023-04-15T10:26:59;99577.03;;;17.18;41.85
30708;BME280;17458;48.958;8.284;2023-04-15T10:29:48;99581.78;;;17.40;42.19
30708;BME280;17458;48.958;8.284;2023-04-15T10:32:32;99583.38;;;18.21;41.14
30708;BME280;17458;48.958;8.284;2023-04-15T10:35:17;99580.44;;;17.89;41.21
30708;BME280;17458;48.958;8.284;2023-04-15T10:38:38;99582.66;;;17.44;40.74
30708;BME280;17458;48.958;8.284;2023-04-15T10:44:07;99583.22;;;17.11;42.01
30708;BME280;17458;48.958;8.284;2023-04-15T10:46:51;99588.34;;;17.73;41.17
30708;BME280;17458;48.958;8.284;2023-04-15T10:49:42;99588.66;;;17.17;41.94
30708;BME280;17458;48.958;8.284;2023-04-15T10:52:28;99583.16;;;17.06;41.79
30708;BME280;17458;48.958;8.284;2023-04-15T10:55:14;99584.88;;;17.84;42.06
30708;BME280;17458;48.958;8.284;2023-04-15T10:58:00;99602.16;;;18.17;40.18
30708;BME280;17458;48.958;8.284;2023-04-15T11:00:49;99593.56;;;18.65;40.03
30708;BME280;17458;48.958;8.284;2023-04-15T11:03:40;99600.41;;;18.25;40.61
30708;BME280;17458;48.958;8.284;2023-04-15T11:06:42;99601.69;;;18.82;40.82
30708;BME280;17458;48.958;8.284;2023-04-15T11:09:31;99603.09;;;18.22;40.24
30708;BME280;17458;48.958;8.284;2023-04-15T11:12:19;99602.13;;;18.14;40.55
30708;BME280;17458;48.958;8.284;2023-04-15T11:15:55;99599.06;;;18.97;41.36
30708;BME280;17458;48.958;8.284;2023-04-15T11:18:38;99601.88;;;19.26;41.34
30708;BME280;17458;48.958;8.284;2023-04-15T11:21:24;99606.97;;;18.62;39.07
30708;BME280;17458;48.958;8.284;2023-04-15T11:24:09;99604.03;;;18.30;39.84
30708;BME280;17458;48.958;8.284;2023-04-15T11:26:56;99611.53;;;18.73;38.23
30708;BME280;17458;48.958;8.284;2023-04-15T11:29:41;99603.19;;;18.34;37.90
30708;BME280;17458;48.958;8.284;2023-04-15T11:32:27;99609.22;;;18.02;38.32
30708;BME280;17458;48.958;8.284;2023-04-15T11:35:11;99614.47;;;17.90;38.38
30708;BME280;17458;48.958;8.284;2023-04-15T11:37:55;99613.88;;;18.26;37.80
30708;BME280;17458;48.958;8.284;2023-04-15T11:40:39;99607.97;;;18.84;38.00
30708;BME280;17458;48.958;8.284;2023-04-15T11:43:23;99607.97;;;18.79;37.71
30708;BME280;17458;48.958;8.284;2023-04-15T11:46:08;99613.31;;;18.73;36.95
30708;BME280;17458;48.958;8.284;2023-04-15T11:48:52;99615.97;;;18.65;37.49
30708;BME280;17458;48.958;8.284;2023-04-15T11:51:36;99608.94;;;18.93;37.49
30708;BME280;17458;48.958;8.284;2023-04-15T11:54:20;99612.44;;;18.77;36.99
30708;BME280;17458;48.958;8.284;2023-04-15T11:57:04;99621.41;;;18.76;36.53
30708;BME280;17458;48.958;8.284;2023-04-15T11:59:54;99617.66;;;18.57;36.36
30708;BME280;17458;48.958;8.284;2023-04-15T12:02:38;99616.94;;;18.84;36.41
30708;BME280;17458;48.958;8.284;2023-04-15T12:05:22;99617.03;;;18.95;36.03
30708;BME280;17458;48.958;8.284;2023-04-15T12:08:06;99628.72;;;19.09;36.56
30708;BME280;17458;48.958;8.284;2023-04-15T12:10:50;99619.75;;;19.04;35.72
30708;BME280;17458;48.958;8.284;2023-04-15T12:13:34;99627.63;;;18.69;35.94
30708;BME280;17458;48.958;8.284;2023-04-15T12:16:19;99632.53;;;18.05;35.63
30708;BME280;17458;48.958;8.284;2023-04-15T12:19:06;99629.28;;;18.55;35.91
30708;BME280;17458;48.958;8.284;2023-04-15T12:21:52;99632.06;;;18.61;35.61
30708;BME280;17458;48.958;8.284;2023-04-15T12:24:41;99636.38;;;18.40;35.74
30708;BME280;17458;48.958;8.284;2023-04-15T12:27:30;99646.31;;;18.49;34.91
30708;BME280;17458;48.958;8.284;2023-04-15T12:30:15;99647.00;;;18.21;34.81
30708;BME280;17458;48.958;8.284;2023-04-15T12:32:59;99655.19;;;18.37;34.68
30708;BME280;17458;48.958;8.284;2023-04-15T12:35:44;99652.66;;;18.59;33.77
30708;BME280;17458;48.958;8.284;2023-04-15T12:38:28;99645.63;;;18.79;34.27
30708;BME280;17458;48.958;8.284;2023-04-15T12:41:12;99652.09;;;19.16;32.68
30708;BME280;17458;48.958;8.284;2023-04-15T12:43:57;99648.44;;;19.03;32.56
30708;BME280;17458;48.958;8.284;2023-04-15T12:46:41;99659.16;;;18.96;33.63
30708;BME280;17458;48.958;8.284;2023-04-15T12:49:25;99656.59;;;19.19;32.17
30708;BME280;17458;48.958;8.284;2023-04-15T12:52:09;99663.09;;;19.78;31.60
30708;BME280;17458;48.958;8.284;2023-04-15T12:54:54;99678.28;;;19.51;31.73
30708;BME280;17458;48.958;8.284;2023-04-15T12:57:38;99671.91;;;19.42;33.32
30708;BME280;17458;48.958;8.284;2023-04-15T13:00:22;99672.97;;;19.75;32.79
30708;BME280;17458;48.958;8.284;2023-04-15T13:03:06;99677.44;;;19.80;31.50
30708;BME280;17458;48.958;8.284;2023-04-15T13:05:50;99672.06;;;19.73;32.61
30708;BME280;17458;48.958;8.284;2023-04-15T13:08:35;99669.34;;;19.64;33.51
30708;BME280;17458;48.958;8.284;2023-04-15T13:11:19;99671.84;;;19.18;33.49
30708;BME280;17458;48.958;8.284;2023-04-15T13:14:05;99677.09;;;18.97;35.39
30708;BME280;17458;48.958;8.284;2023-04-15T13:16:49;99675.44;;;19.19;34.20
30708;BME280;17458;48.958;8.284;2023-04-15T13:19:33;99673.56;;;19.05;34.23
30708;BME280;17458;48.958;8.284;2023-04-15T13:22:19;99684.72;;;18.34;36.16
30708;BME280;17458;48.958;8.284;2023-04-15T13:25:04;99683.69;;;18.19;35.97
30708;BME280;17458;48.958;8.284;2023-04-15T13:27:48;99690.91;;;18.26;35.66
30708;BME280;17458;48.958;8.284;2023-04-15T13:30:33;99685.94;;;18.74;36.10
30708;BME280;17458;48.958;8.284;2023-04-15T13:33:17;99687.75;;;18.75;34.91
30708;BME280;17458;48.958;8.284;2023-04-15T13:36:01;99690.53;;;18.97;34.83
30708;BME280;17458;48.958;8.284;2023-04-15T13:38:45;99696.19;;;19.47;34.01
30708;BME280;17458;48.958;8.284;2023-04-15T13:41:29;99698.94;;;19.56;34.88
30708;BME280;17458;48.958;8.284;2023-04-15T13:44:14;99701.47;;;18.03;36.24
30708;BME280;17458;48.958;8.284;2023-04-15T13:46:58;99696.03;;;17.95;35.63
30708;BME280;17458;48.958;8.284;2023-04-15T13:49:42;99703.13;;;17.89;36.06
30708;BME280;17458;48.958;8.284;2023-04-15T13:52:26;99703.59;;;18.42;35.27
30708;BME280;17458;48.958;8.284;2023-04-15T13:55:10;99710.75;;;18.40;35.67
30708;BME280;17458;48.958;8.284;2023-04-15T13:57:55;99713.09;;;18.03;36.73
30708;BME280;17458;48.958;8.284;2023-04-15T14:00:39;99724.75;;;18.04;36.84
30708;BME280;17458;48.958;8.284;2023-04-15T14:03:23;99714.69;;;17.85;37.75
30708;BME280;17458;48.958;8.284;2023-04-15T14:06:07;99720.53;;;18.32;37.72
30708;BME280;17458;48.958;8.284;2023-04-15T14:08:51;99730.78;;;17.83;38.09
30708;BME280;17458;48.958;8.284;2023-04-15T14:11:37;99726.25;;;17.76;39.60
30708;BME280;17458;48.958;8.284;2023-04-15T14:14:22;99732.03;;;17.37;40.10
30708;BME280;17458;48.958;8.284;2023-04-15T14:17:06;99741.16;;;17.51;40.59
30708;BME280;17458;48.958;8.284;2023-04-15T14:19:50;99746.75;;;17.66;39.95
30708;BME280;17458;48.958;8.284;2023-04-15T14:22:35;99750.84;;;17.42;40.54
30708;BME280;17458;48.958;8.284;2023-04-15T14:25:19;99752.47;;;17.29;39.90
30708;BME280;17458;48.958;8.284;2023-04-15T14:28:03;99756.84;;;17.21;40.51
30708;BME280;17458;48.958;8.284;2023-04-15T14:30:48;99759.69;;;17.33;40.54
30708;BME280;17458;48.958;8.284;2023-04-15T14:33:32;99763.69;;;16.97;41.01
30708;BME280;17458;48.958;8.284;2023-04-15T14:36:16;99764.41;;;16.87;41.37
30708;BME280;17458;48.958;8.284;2023-04-15T14:39:00;99765.47;;;17.00;40.61
30708;BME280;17458;48.958;8.284;2023-04-15T14:41:44;99769.25;;;17.14;40.84
30708;BME280;17458;48.958;8.284;2023-04-15T14:44:29;99775.72;;;16.67;40.99
30708;BME280;17458;48.958;8.284;2023-04-15T14:47:13;99787.59;;;16.82;41.04